Nearby METAR Reports

 

NZCH - Christchurch Int, New Zealand
Distance from station: W 10km
Updated: 17 Aug 2018 21:30
Light rain, Mostly cloudy
Light rain, Mostly cloudy
 Wind from WSW
Wind: WSW 20 km/h
Temperature: 5°C
Wind Chill: 1°C
Dew Point: 4°C
Humidity: 93%
Barometer: 1004 hPa
Summary: Light rain
Clouds: Mostly cloudy
Visibility: 10 km
Cloud details: Partly cloudy 335 m
Partly cloudy 549 m
Mostly cloudy 1250 m
2018/08/17 09:30 NZCH 170930Z AUTO 25011KT 210V310 9999 -RA SCT011/// SCT018/// BKN041/// 05/04 Q1004 TEMPO 4000 RA BKN008